createdAt,value
2023-04-21T00:01:10.567Z,24.70
2023-04-21T00:06:13.215Z,24.20
2023-04-21T00:11:15.475Z,24.10
2023-04-21T00:16:17.641Z,23.50
2023-04-21T00:21:20.301Z,22.90
2023-04-21T00:26:22.722Z,23.30
2023-04-21T00:31:25.417Z,22.10
2023-04-21T00:36:28.604Z,22.00
2023-04-21T00:41:31.257Z,21.80
2023-04-21T00:46:34.549Z,21.40
2023-04-21T00:51:37.687Z,23.80
2023-04-21T00:56:40.189Z,21.60
2023-04-21T01:01:42.809Z,22.40
2023-04-21T01:06:45.521Z,21.90
2023-04-21T01:12:08.366Z,23.70
2023-04-21T01:17:10.689Z,22.30
2023-04-21T01:22:13.776Z,21.60
2023-04-21T01:27:22.135Z,21.90
2023-04-21T01:32:30.470Z,21.80
2023-04-21T01:37:34.592Z,21.60
2023-04-21T01:42:40.620Z,21.80
2023-04-21T01:47:43.273Z,23.80
2023-04-21T01:52:45.640Z,23.00
2023-04-21T01:57:51.134Z,23.50
2023-04-21T02:02:53.902Z,25.10
2023-04-21T02:07:55.989Z,25.40
2023-04-21T02:12:58.235Z,23.70
2023-04-21T02:18:00.909Z,24.40
2023-04-21T02:23:03.467Z,23.30
2023-04-21T02:28:05.652Z,24.00
2023-04-21T02:33:07.862Z,24.20
2023-04-21T02:38:13.061Z,23.40
2023-04-21T02:43:17.985Z,24.30
2023-04-21T02:48:23.142Z,24.30
2023-04-21T02:53:26.530Z,22.80
2023-04-21T02:58:28.627Z,22.90
2023-04-21T03:03:31.998Z,23.10
2023-04-21T03:08:34.445Z,22.50
2023-04-21T03:13:36.495Z,22.70
2023-04-21T03:18:38.405Z,38.60
2023-04-21T03:23:41.264Z,24.40
2023-04-21T03:28:43.369Z,23.70
2023-04-21T03:33:45.763Z,23.40
2023-04-21T03:38:47.727Z,22.80
2023-04-21T03:43:52.388Z,24.20
2023-04-21T03:48:54.505Z,23.30
2023-04-21T03:53:56.544Z,24.30
2023-04-21T03:58:58.909Z,25.80
2023-04-21T04:04:01.186Z,26.80
2023-04-21T04:09:05.124Z,26.50
2023-04-21T04:14:07.237Z,25.40
2023-04-21T04:19:09.378Z,23.90
2023-04-21T04:24:12.379Z,26.20
2023-04-21T04:29:16.243Z,27.60
2023-04-21T04:34:19.242Z,26.70
2023-04-21T04:39:22.332Z,28.00
2023-04-21T04:44:26.010Z,26.00
2023-04-21T04:49:27.952Z,23.40
2023-04-21T04:54:30.068Z,22.60
2023-04-21T04:59:32.973Z,21.00
2023-04-21T05:04:35.380Z,22.70
2023-04-21T05:09:37.361Z,22.20
2023-04-21T05:14:39.484Z,23.80
2023-04-21T05:19:41.409Z,24.30
2023-04-21T05:24:44.818Z,25.10
2023-04-21T05:29:46.811Z,25.10
2023-04-21T05:34:48.772Z,23.80
2023-04-21T05:39:51.685Z,25.30
2023-04-21T05:44:54.706Z,22.80
2023-04-21T05:49:56.612Z,22.20
2023-04-21T05:55:02.268Z,20.10
2023-04-21T06:00:05.411Z,20.40
2023-04-21T06:05:08.011Z,18.60
2023-04-21T06:10:11.882Z,18.90
2023-04-21T06:15:13.881Z,18.30
2023-04-21T06:20:17.735Z,17.90
2023-04-21T06:25:20.043Z,18.30
2023-04-21T06:30:22.949Z,18.90
2023-04-21T06:35:25.062Z,18.70
2023-04-21T06:40:26.911Z,16.60
2023-04-21T06:45:29.166Z,16.70
2023-04-21T06:50:31.787Z,16.50
2023-04-21T06:55:34.340Z,18.40
2023-04-21T07:00:36.403Z,18.30
2023-04-21T07:05:38.804Z,19.00
2023-04-21T07:10:41.078Z,17.70
2023-04-21T07:15:43.224Z,17.40
2023-04-21T07:20:45.500Z,16.80
2023-04-21T07:25:48.280Z,16.50
2023-04-21T07:30:50.586Z,15.20
2023-04-21T07:35:52.786Z,11.40
2023-04-21T07:40:54.982Z,13.30
2023-04-21T07:45:58.407Z,13.40
2023-04-21T07:51:00.565Z,14.00
2023-04-21T07:56:02.904Z,13.80
2023-04-21T08:01:05.110Z,15.70
2023-04-21T08:06:08.253Z,15.40
2023-04-21T08:11:11.011Z,15.70
2023-04-21T08:16:13.764Z,15.50
2023-04-21T08:21:15.723Z,15.90
2023-04-21T08:26:22.156Z,16.40
2023-04-21T08:31:24.135Z,15.20
2023-04-21T08:36:29.851Z,16.10
2023-04-21T08:41:32.164Z,15.10
2023-04-21T08:46:36.356Z,14.00
2023-04-21T08:51:38.362Z,13.70
2023-04-21T08:56:40.916Z,12.50
2023-04-21T09:02:06.868Z,11.40
2023-04-21T09:07:09.729Z,9.30
2023-04-21T09:12:11.629Z,9.80
2023-04-21T09:17:16.558Z,9.00
2023-04-21T09:22:19.130Z,6.50
2023-04-21T09:27:21.885Z,5.10
2023-04-21T09:32:23.867Z,5.90
2023-04-21T09:37:26.025Z,5.20
2023-04-21T09:42:32.114Z,5.40
2023-04-21T09:47:48.588Z,5.20
2023-04-21T09:52:52.679Z,5.60
2023-04-21T09:58:02.738Z,5.40
2023-04-21T10:03:05.966Z,4.90
2023-04-21T10:08:11.304Z,5.30
2023-04-21T10:13:16.646Z,5.50
2023-04-21T10:18:22.676Z,6.10
2023-04-21T10:23:33.900Z,6.20
2023-04-21T10:28:43.801Z,5.70
2023-04-21T10:34:13.799Z,6.10
2023-04-21T10:39:38.709Z,5.90
2023-04-21T10:44:44.332Z,5.10
2023-04-21T10:49:50.031Z,5.40
2023-04-21T10:54:54.823Z,5.30
2023-04-21T10:59:57.197Z,5.20
2023-04-21T11:05:01.574Z,5.90
2023-04-21T11:10:08.700Z,5.60
2023-04-21T11:15:13.592Z,5.60
2023-04-21T11:20:15.881Z,6.00
2023-04-21T11:25:18.839Z,4.90
2023-04-21T11:30:21.503Z,5.40
2023-04-21T11:35:23.497Z,5.10
2023-04-21T11:40:25.669Z,5.20
2023-04-21T11:45:29.137Z,5.20
2023-04-21T11:50:32.525Z,5.00
2023-04-21T11:55:34.864Z,5.50
2023-04-21T12:00:37.144Z,4.80
2023-04-21T12:05:39.455Z,4.80
2023-04-21T12:10:47.060Z,5.10
2023-04-21T12:15:49.263Z,5.10
2023-04-21T12:20:52.668Z,5.50
2023-04-21T12:25:54.488Z,5.20
2023-04-21T12:30:56.746Z,5.20
2023-04-21T12:35:59.883Z,4.70
2023-04-21T12:41:02.030Z,5.20
2023-04-21T12:46:04.037Z,5.40
2023-04-21T12:51:06.181Z,5.00
2023-04-21T12:56:08.194Z,4.80
2023-04-21T13:01:12.245Z,5.10
2023-04-21T13:06:14.263Z,5.50
2023-04-21T13:11:16.219Z,5.30
2023-04-21T13:16:18.152Z,5.10
2023-04-21T13:21:20.340Z,4.80
2023-04-21T13:26:22.159Z,4.50
2023-04-21T13:31:24.697Z,4.80
2023-04-21T13:36:26.973Z,5.40
2023-04-21T13:41:29.113Z,5.00
2023-04-21T13:46:31.103Z,5.40
2023-04-21T13:51:33.220Z,4.80
2023-04-21T13:56:35.061Z,4.80
2023-04-21T14:01:37.788Z,4.70
2023-04-21T14:06:39.945Z,4.70
2023-04-21T14:11:42.366Z,4.70
2023-04-21T14:16:44.395Z,4.90
2023-04-21T14:21:46.502Z,4.80
2023-04-21T14:26:48.528Z,4.50
2023-04-21T14:31:51.560Z,4.10
2023-04-21T14:36:54.036Z,4.80
2023-04-21T14:41:57.009Z,5.20
2023-04-21T14:47:09.281Z,5.00
2023-04-21T14:52:13.165Z,4.70
2023-04-21T14:57:19.834Z,4.00
2023-04-21T15:02:23.038Z,4.10
2023-04-21T15:07:25.323Z,4.20
2023-04-21T15:12:27.519Z,4.40
2023-04-21T15:17:30.683Z,3.90
2023-04-21T15:22:34.606Z,4.10
2023-04-21T15:27:36.968Z,4.00
2023-04-21T15:32:41.192Z,4.40
2023-04-21T15:37:45.812Z,4.40
2023-04-21T15:42:51.688Z,4.30
2023-04-21T15:47:53.856Z,4.10
2023-04-21T15:52:56.101Z,3.70
2023-04-21T15:57:58.232Z,3.60
2023-04-21T16:03:01.943Z,3.70
2023-04-21T16:08:04.757Z,3.90
2023-04-21T16:13:08.021Z,3.80
2023-04-21T16:18:10.009Z,4.50
2023-04-21T16:23:13.162Z,4.40
2023-04-21T16:28:15.472Z,4.40
2023-04-21T16:33:18.418Z,5.10
2023-04-21T16:38:20.403Z,4.60
2023-04-21T16:43:23.600Z,3.40
2023-04-21T16:48:25.665Z,3.90
2023-04-21T16:53:27.905Z,5.30
2023-04-21T16:58:30.238Z,4.40
2023-04-21T17:03:32.623Z,5.20
2023-04-21T17:08:34.971Z,5.20
2023-04-21T17:13:39.295Z,6.60
2023-04-21T17:18:41.603Z,6.30
2023-04-21T17:23:43.686Z,5.40
2023-04-21T17:28:46.147Z,6.70
2023-04-21T17:33:48.668Z,6.40
2023-04-21T17:38:51.082Z,5.80
2023-04-21T17:43:57.428Z,5.40
2023-04-21T17:48:59.394Z,5.70
2023-04-21T17:54:03.348Z,7.20
2023-04-21T17:59:05.526Z,9.70
2023-04-21T18:04:09.448Z,8.40
2023-04-21T18:09:12.164Z,8.20
2023-04-21T18:14:14.186Z,8.10
2023-04-21T18:19:17.361Z,7.40
2023-04-21T18:24:19.479Z,8.80
2023-04-21T18:29:21.689Z,10.00
2023-04-21T18:34:24.216Z,8.90
2023-04-21T18:39:26.166Z,12.20
2023-04-21T18:44:30.181Z,11.90
2023-04-21T18:49:32.579Z,8.80
2023-04-21T18:54:35.476Z,9.60
2023-04-21T18:59:38.781Z,10.30
2023-04-21T19:04:44.053Z,10.40
2023-04-21T19:09:46.436Z,11.50
2023-04-21T19:14:49.484Z,10.70
2023-04-21T19:19:51.798Z,11.10
2023-04-21T19:24:56.122Z,14.30
2023-04-21T19:29:58.815Z,16.60
2023-04-21T19:35:06.032Z,10.90
2023-04-21T19:40:09.131Z,11.40
2023-04-21T19:45:12.331Z,12.40
2023-04-21T19:50:14.635Z,11.80
2023-04-21T19:55:17.280Z,12.00
2023-04-21T20:00:19.460Z,12.60
2023-04-21T20:05:22.007Z,16.70
2023-04-21T20:10:23.997Z,16.80
2023-04-21T20:15:27.028Z,14.80
2023-04-21T20:20:29.728Z,14.00
2023-04-21T20:25:32.106Z,12.70
2023-04-21T20:30:34.662Z,11.90
2023-04-21T20:35:40.704Z,12.50
2023-04-21T20:40:43.681Z,12.40
2023-04-21T20:45:47.654Z,11.40
2023-04-21T20:50:51.369Z,12.80
2023-04-21T20:55:53.668Z,13.00
2023-04-21T21:00:55.548Z,14.50
2023-04-21T21:05:57.595Z,15.00
2023-04-21T21:11:00.296Z,14.70
2023-04-21T21:16:07.819Z,14.80
2023-04-21T21:21:10.748Z,15.10
2023-04-21T21:26:12.801Z,14.90
2023-04-21T21:31:14.615Z,14.70
2023-04-21T21:36:17.441Z,15.60
2023-04-21T21:41:21.565Z,16.60
2023-04-21T21:46:43.723Z,17.10
2023-04-21T21:51:48.088Z,19.20
2023-04-21T21:56:50.489Z,19.20
2023-04-21T22:01:52.548Z,18.70
2023-04-21T22:06:54.871Z,18.10
